createdAt,value
2022-12-05T00:00:35.004Z,13.60
2022-12-05T00:03:08.266Z,13.85
2022-12-05T00:05:41.661Z,11.98
2022-12-05T00:08:11.284Z,11.10
2022-12-05T00:10:42.118Z,13.70
2022-12-05T00:13:12.026Z,16.92
2022-12-05T00:15:43.001Z,10.90
2022-12-05T00:18:12.530Z,12.82
2022-12-05T00:20:48.289Z,9.43
2022-12-05T00:23:17.908Z,13.88
2022-12-05T00:25:47.592Z,14.50
2022-12-05T00:28:17.169Z,23.00
2022-12-05T00:30:46.788Z,23.63
2022-12-05T00:33:16.439Z,25.27
2022-12-05T00:35:46.043Z,20.55
2022-12-05T00:38:15.631Z,19.20
2022-12-05T00:40:45.263Z,16.48
2022-12-05T00:43:15.757Z,17.15
2022-12-05T00:45:45.569Z,17.23
2022-12-05T00:48:15.195Z,15.05
2022-12-05T00:50:44.788Z,14.70
2022-12-05T00:53:14.460Z,17.95
2022-12-05T00:55:44.150Z,19.63
2022-12-05T00:58:13.766Z,20.45
2022-12-05T01:00:43.355Z,15.45
2022-12-05T01:03:13.063Z,16.23
2022-12-05T01:05:42.651Z,16.27
2022-12-05T01:08:12.343Z,17.42
2022-12-05T01:10:42.107Z,17.63
2022-12-05T01:13:11.733Z,22.27
2022-12-05T01:15:41.519Z,12.27
2022-12-05T01:18:11.177Z,12.05
2022-12-05T01:20:45.128Z,11.27
2022-12-05T01:23:15.681Z,13.43
2022-12-05T01:25:48.250Z,14.15
2022-12-05T01:28:19.624Z,12.55
2022-12-05T01:30:52.824Z,10.18
2022-12-05T01:33:22.423Z,9.55
2022-12-05T01:35:52.015Z,8.82
2022-12-05T01:38:21.621Z,6.75
2022-12-05T01:40:51.222Z,13.02
2022-12-05T01:43:21.894Z,10.52
2022-12-05T01:45:52.361Z,16.50
2022-12-05T01:48:27.332Z,7.00
2022-12-05T01:50:57.797Z,8.20
2022-12-05T01:53:28.917Z,7.93
2022-12-05T01:56:00.122Z,4.82
2022-12-05T01:58:35.676Z,4.95
2022-12-05T02:01:05.977Z,4.60
2022-12-05T02:03:37.908Z,4.93
2022-12-05T02:06:08.109Z,3.85
2022-12-05T02:08:39.538Z,3.22
2022-12-05T02:11:11.009Z,6.00
2022-12-05T02:14:19.839Z,3.95
2022-12-05T02:17:08.786Z,4.68
2022-12-05T02:20:17.609Z,5.65
2022-12-05T02:23:26.337Z,7.90
2022-12-05T02:26:35.131Z,5.38
2022-12-05T02:29:43.817Z,5.15
2022-12-05T02:32:36.108Z,2.63
2022-12-05T02:35:40.265Z,4.20
2022-12-05T02:38:36.828Z,3.97
2022-12-05T02:41:27.176Z,3.75
2022-12-05T02:44:17.214Z,2.88
2022-12-05T02:46:50.946Z,2.47
2022-12-05T02:49:28.879Z,3.65
2022-12-05T02:52:01.804Z,2.88
2022-12-05T02:54:37.284Z,4.50
2022-12-05T02:57:07.788Z,3.25
2022-12-05T02:59:38.051Z,3.03
2022-12-05T03:02:10.024Z,4.05
2022-12-05T03:04:40.523Z,2.95
2022-12-05T03:07:14.154Z,3.47
2022-12-05T03:09:57.918Z,4.57
2022-12-05T03:12:35.636Z,3.40
2022-12-05T03:15:21.435Z,4.07
2022-12-05T03:18:00.420Z,3.42
2022-12-05T03:20:52.552Z,6.97
2022-12-05T03:23:41.923Z,3.40
2022-12-05T03:26:39.636Z,3.42
2022-12-05T03:32:37.203Z,2.78
2022-12-05T03:35:31.459Z,3.95
2022-12-05T03:38:23.650Z,3.15
2022-12-05T03:41:03.128Z,6.88
2022-12-05T03:43:59.387Z,2.53
2022-12-05T03:46:40.546Z,3.35
2022-12-05T03:49:36.669Z,1.85
2022-12-05T03:52:18.294Z,11.30
2022-12-05T03:54:52.646Z,2.25
2022-12-05T03:57:35.645Z,1.80
2022-12-05T04:00:13.548Z,3.65
2022-12-05T04:02:57.744Z,3.03
2022-12-05T04:05:55.428Z,1.65
2022-12-05T04:11:03.023Z,2.10
2022-12-05T04:13:48.621Z,3.83
2022-12-05T04:16:53.478Z,2.05
2022-12-05T04:20:04.372Z,2.13
2022-12-05T04:22:35.028Z,2.63
2022-12-05T04:25:27.090Z,2.03
2022-12-05T04:28:35.881Z,4.38
2022-12-05T04:31:13.805Z,6.97
2022-12-05T04:36:23.248Z,1.95
2022-12-05T04:42:02.581Z,1.45
2022-12-05T04:44:39.025Z,3.83
2022-12-05T04:47:11.844Z,2.22
2022-12-05T04:49:46.953Z,5.28
2022-12-05T04:52:20.973Z,1.35
2022-12-05T04:55:17.492Z,1.80
2022-12-05T04:58:15.430Z,2.45
2022-12-05T05:00:56.228Z,2.10
2022-12-05T05:03:44.405Z,1.92
2022-12-05T05:06:15.938Z,3.08
2022-12-05T05:08:57.219Z,4.35
2022-12-05T05:11:33.698Z,2.00
2022-12-05T05:14:04.605Z,2.17
2022-12-05T05:16:41.304Z,2.20
2022-12-05T05:19:12.844Z,2.78
2022-12-05T05:21:44.468Z,1.52
2022-12-05T05:24:14.917Z,2.47
2022-12-05T05:26:49.188Z,1.50
2022-12-05T05:29:22.972Z,3.67
2022-12-05T05:31:52.581Z,1.42
2022-12-05T05:34:22.237Z,2.00
2022-12-05T05:36:54.900Z,3.75
2022-12-05T05:39:24.625Z,3.97
2022-12-05T05:41:54.231Z,2.25
2022-12-05T05:44:23.832Z,1.63
2022-12-05T05:46:53.582Z,3.33
2022-12-05T05:49:23.960Z,2.42
2022-12-05T05:51:53.900Z,4.75
2022-12-05T05:54:23.548Z,2.80
2022-12-05T05:56:53.153Z,3.63
2022-12-05T05:59:22.858Z,1.52
2022-12-05T06:01:52.421Z,2.08
2022-12-05T06:04:22.109Z,2.13
2022-12-05T06:06:51.806Z,2.47
2022-12-05T06:09:21.918Z,1.88
2022-12-05T06:11:51.514Z,1.48
2022-12-05T06:14:21.189Z,2.63
2022-12-05T06:16:50.924Z,8.13
2022-12-05T06:19:20.578Z,2.35
2022-12-05T06:21:52.652Z,2.17
2022-12-05T06:24:22.537Z,3.00
2022-12-05T06:26:52.453Z,1.48
2022-12-05T06:29:25.704Z,4.32
2022-12-05T06:31:56.770Z,2.03
2022-12-05T06:34:26.803Z,2.38
2022-12-05T06:36:56.795Z,1.80
2022-12-05T06:39:26.753Z,1.63
2022-12-05T06:41:56.861Z,1.20
2022-12-05T06:44:28.661Z,2.47
2022-12-05T06:46:58.927Z,1.67
2022-12-05T06:49:37.677Z,1.20
2022-12-05T06:52:07.902Z,2.50
2022-12-05T06:54:37.673Z,2.85
2022-12-05T06:57:07.290Z,3.20
2022-12-05T06:59:37.331Z,2.95
2022-12-05T07:02:09.927Z,1.58
2022-12-05T07:04:39.929Z,2.38
2022-12-05T07:07:10.377Z,2.92
2022-12-05T07:10:00.185Z,13.02
2022-12-05T07:12:30.380Z,5.05
2022-12-05T07:15:00.520Z,3.85
2022-12-05T07:17:30.568Z,3.25
2022-12-05T07:20:01.003Z,3.65
2022-12-05T07:22:31.140Z,3.00
2022-12-05T07:25:01.122Z,2.70
2022-12-05T07:27:31.108Z,2.75
2022-12-05T07:30:01.258Z,2.20
2022-12-05T07:32:35.524Z,6.15
2022-12-05T07:35:05.386Z,2.10
2022-12-05T07:37:35.402Z,6.63
2022-12-05T07:40:05.560Z,2.92
2022-12-05T07:42:35.574Z,3.03
2022-12-05T07:45:06.111Z,3.65
2022-12-05T07:47:36.198Z,3.38
2022-12-05T07:50:07.449Z,2.42
2022-12-05T07:52:37.438Z,1.85
2022-12-05T07:55:08.051Z,2.63
2022-12-05T07:57:38.040Z,4.78
2022-12-05T08:00:08.731Z,3.00
2022-12-05T08:02:40.789Z,6.30
2022-12-05T08:05:11.219Z,2.15
2022-12-05T08:07:41.216Z,2.75
2022-12-05T08:10:11.854Z,2.97
2022-12-05T08:12:42.057Z,4.60
2022-12-05T08:15:12.431Z,2.88
2022-12-05T08:17:42.396Z,5.85
2022-12-05T08:20:12.513Z,1.95
2022-12-05T08:22:42.119Z,1.90
2022-12-05T08:25:12.227Z,5.90
2022-12-05T08:27:41.952Z,3.90
2022-12-05T08:30:11.801Z,3.22
2022-12-05T08:32:41.371Z,4.15
2022-12-05T08:35:11.900Z,5.47
2022-12-05T08:37:41.568Z,3.50
2022-12-05T08:40:11.837Z,3.17
2022-12-05T08:42:41.445Z,2.85
2022-12-05T08:45:11.542Z,3.10
2022-12-05T08:47:41.270Z,9.57
2022-12-05T08:50:12.078Z,2.90
2022-12-05T08:52:42.211Z,3.55
2022-12-05T08:55:12.294Z,2.75
2022-12-05T08:57:42.191Z,2.30
2022-12-05T09:00:12.790Z,2.33
2022-12-05T09:02:44.629Z,2.05
2022-12-05T09:05:27.530Z,4.03
2022-12-05T09:08:01.002Z,5.60
2022-12-05T09:10:31.008Z,3.38
2022-12-05T09:13:00.950Z,2.75
2022-12-05T09:15:30.985Z,5.50
2022-12-05T09:18:02.056Z,1.80
2022-12-05T09:20:31.689Z,3.00
2022-12-05T09:23:01.440Z,2.47
2022-12-05T09:25:31.080Z,2.47
2022-12-05T09:28:00.719Z,7.13
2022-12-05T09:30:31.748Z,6.10
2022-12-05T09:33:01.270Z,2.47
2022-12-05T09:35:30.840Z,3.33
2022-12-05T09:38:00.507Z,2.42
2022-12-05T09:40:30.129Z,3.38
2022-12-05T09:43:08.928Z,12.48
2022-12-05T09:45:45.866Z,2.75
2022-12-05T09:48:21.023Z,5.70
2022-12-05T09:50:56.536Z,3.67
2022-12-05T09:53:37.773Z,5.78
2022-12-05T09:56:28.570Z,5.00
2022-12-05T09:59:02.624Z,3.15
2022-12-05T10:02:13.268Z,3.80
2022-12-05T10:05:07.451Z,4.97
2022-12-05T10:08:01.402Z,4.38
2022-12-05T10:10:47.948Z,7.90
2022-12-05T10:13:56.768Z,9.43
2022-12-05T10:16:39.717Z,8.52
2022-12-05T10:19:17.091Z,3.53
2022-12-05T10:22:06.442Z,4.47
2022-12-05T10:24:54.131Z,4.68
2022-12-05T10:27:40.397Z,7.45
2022-12-05T10:30:19.222Z,3.97
2022-12-05T10:33:16.800Z,3.55
2022-12-05T10:38:35.529Z,3.80
2022-12-05T10:41:11.194Z,3.20
2022-12-05T10:43:44.872Z,6.05
2022-12-05T10:46:18.320Z,10.82
2022-12-05T10:48:48.195Z,5.97
2022-12-05T10:51:22.875Z,4.03
2022-12-05T10:53:54.503Z,6.28
2022-12-05T10:56:49.095Z,8.70
2022-12-05T10:59:21.835Z,8.55
2022-12-05T11:02:01.415Z,4.43
2022-12-05T11:04:51.313Z,8.40
2022-12-05T11:07:34.087Z,11.10
2022-12-05T11:10:24.921Z,5.32
2022-12-05T11:13:00.034Z,14.50
2022-12-05T11:15:32.769Z,6.45
2022-12-05T11:18:21.771Z,6.35
2022-12-05T11:20:51.476Z,6.30
2022-12-05T11:23:31.237Z,10.85
2022-12-05T11:26:01.799Z,9.70
2022-12-05T11:28:39.729Z,13.10
2022-12-05T11:34:16.733Z,10.57
2022-12-05T11:36:52.648Z,13.80
2022-12-05T11:39:22.702Z,18.70
2022-12-05T11:42:18.822Z,18.10
2022-12-05T11:45:23.198Z,22.73
2022-12-05T11:48:28.135Z,13.30
2022-12-05T11:51:23.579Z,13.50
2022-12-05T11:55:03.252Z,7.55
2022-12-05T11:58:02.231Z,6.68
2022-12-05T12:01:10.975Z,7.70
2022-12-05T12:04:02.803Z,8.52
2022-12-05T12:06:53.531Z,12.05
2022-12-05T12:10:02.643Z,7.80
2022-12-05T12:13:04.853Z,9.55
2022-12-05T12:16:13.536Z,8.27
2022-12-05T12:19:17.162Z,8.52
2022-12-05T12:22:23.408Z,12.30
2022-12-05T12:25:19.996Z,16.73
2022-12-05T12:28:28.792Z,7.38
2022-12-05T12:31:18.175Z,11.95
2022-12-05T12:34:26.940Z,13.07
2022-12-05T12:37:29.290Z,12.40
2022-12-05T12:40:26.818Z,11.15
2022-12-05T12:46:51.154Z,12.75
2022-12-05T12:49:50.690Z,22.17
2022-12-05T12:52:25.530Z,18.85
2022-12-05T12:55:25.849Z,13.95
2022-12-05T12:58:20.453Z,16.63
2022-12-05T13:01:32.103Z,27.83
2022-12-05T13:04:16.790Z,26.73
2022-12-05T13:07:08.261Z,28.40
2022-12-05T13:09:57.797Z,29.15
2022-12-05T13:12:31.566Z,18.17
2022-12-05T13:15:06.552Z,20.45
2022-12-05T13:17:36.455Z,17.90
2022-12-05T13:20:06.921Z,17.00
2022-12-05T13:22:36.672Z,24.80
2022-12-05T13:25:06.523Z,19.00
2022-12-05T13:27:36.217Z,18.27
2022-12-05T13:30:13.314Z,20.10
2022-12-05T13:32:44.300Z,18.85
2022-12-05T13:35:42.977Z,19.27
2022-12-05T13:38:53.287Z,13.70
2022-12-05T13:41:42.542Z,24.52
2022-12-05T13:44:16.577Z,22.05
2022-12-05T13:46:46.404Z,21.98
2022-12-05T13:49:33.050Z,19.90
2022-12-05T13:52:23.144Z,19.98
2022-12-05T13:55:14.420Z,29.70
2022-12-05T13:57:51.881Z,22.20
2022-12-05T14:00:31.662Z,20.65
2022-12-05T14:03:07.565Z,35.08
2022-12-05T14:05:46.251Z,27.02
2022-12-05T14:08:55.103Z,23.05
2022-12-05T14:11:25.095Z,19.52
2022-12-05T14:14:00.784Z,26.00
2022-12-05T14:16:46.767Z,24.58
2022-12-05T14:19:55.813Z,21.10
2022-12-05T14:22:51.272Z,16.45
2022-12-05T14:26:03.164Z,21.73
2022-12-05T14:29:11.271Z,24.25
2022-12-05T14:32:20.028Z,19.67
2022-12-05T14:35:17.289Z,18.33
2022-12-05T14:38:07.581Z,27.42
2022-12-05T14:40:41.294Z,22.40
2022-12-05T14:43:33.790Z,24.77
2022-12-05T14:46:09.945Z,19.70
2022-12-05T14:48:47.575Z,16.10
2022-12-05T14:51:52.461Z,15.02
2022-12-05T14:54:23.128Z,20.10
2022-12-05T14:57:03.561Z,15.02
2022-12-05T15:00:11.101Z,20.67
2022-12-05T15:05:39.030Z,17.30
2022-12-05T15:08:09.216Z,14.80
2022-12-05T15:10:41.889Z,25.80
2022-12-05T15:13:26.781Z,13.60
2022-12-05T15:16:14.643Z,15.63
2022-12-05T15:21:41.769Z,12.88
2022-12-05T15:24:20.741Z,16.67
2022-12-05T15:26:59.602Z,8.05
2022-12-05T15:29:32.166Z,13.38
2022-12-05T15:32:19.415Z,10.20
2022-12-05T15:35:10.794Z,17.98
2022-12-05T15:37:59.375Z,10.48
2022-12-05T15:40:38.826Z,10.90
2022-12-05T15:43:31.454Z,15.38
2022-12-05T15:46:26.033Z,11.07
2022-12-05T15:48:58.593Z,12.35
2022-12-05T15:51:36.474Z,6.05
2022-12-05T15:54:28.853Z,9.40
2022-12-05T15:57:12.394Z,9.98
2022-12-05T15:59:49.363Z,11.35
2022-12-05T16:02:45.338Z,13.95
2022-12-05T16:05:41.212Z,10.15
2022-12-05T16:08:11.820Z,16.67
2022-12-05T16:10:41.840Z,8.13
2022-12-05T16:13:17.469Z,11.65
2022-12-05T16:15:53.070Z,9.85
2022-12-05T16:18:34.567Z,9.93
2022-12-05T16:21:04.687Z,7.88
2022-12-05T16:23:39.380Z,7.47
2022-12-05T16:26:28.702Z,13.32
2022-12-05T16:29:05.902Z,16.02
2022-12-05T16:31:36.477Z,13.10
2022-12-05T16:34:17.141Z,21.85
2022-12-05T16:36:51.788Z,20.80
2022-12-05T16:39:23.659Z,22.88
2022-12-05T16:41:54.011Z,16.02
2022-12-05T16:44:59.347Z,30.80
2022-12-05T16:47:56.699Z,9.25
2022-12-05T16:50:37.021Z,13.20
2022-12-05T16:53:30.597Z,10.32
2022-12-05T16:56:02.576Z,10.93
2022-12-05T16:58:34.833Z,12.38
2022-12-05T17:01:16.666Z,11.25
2022-12-05T17:03:47.679Z,14.82
2022-12-05T17:06:19.978Z,11.27
2022-12-05T17:08:50.356Z,7.43
2022-12-05T17:11:25.277Z,9.45
2022-12-05T17:13:56.780Z,13.63
2022-12-05T17:16:28.255Z,16.80
2022-12-05T17:18:58.254Z,11.05
2022-12-05T17:21:32.502Z,17.60
2022-12-05T17:24:03.522Z,13.07
2022-12-05T17:26:33.761Z,10.82
2022-12-05T17:29:03.700Z,8.60
2022-12-05T17:31:34.108Z,6.60
2022-12-05T17:34:04.165Z,15.60
2022-12-05T17:36:34.137Z,9.75
2022-12-05T17:39:04.022Z,25.45
2022-12-05T17:41:33.997Z,10.57
2022-12-05T17:44:03.976Z,12.82
2022-12-05T17:46:34.135Z,16.50
2022-12-05T17:49:04.199Z,11.73
2022-12-05T17:51:40.692Z,9.70
2022-12-05T17:54:22.683Z,6.80
2022-12-05T17:56:52.642Z,8.18
2022-12-05T17:59:22.551Z,7.63
2022-12-05T18:01:52.857Z,6.10
2022-12-05T18:04:23.792Z,8.07
2022-12-05T18:06:54.207Z,9.45
2022-12-05T18:09:25.640Z,8.55
2022-12-05T18:11:55.437Z,6.32
2022-12-05T18:14:25.248Z,12.15
2022-12-05T18:16:55.244Z,8.52
2022-12-05T18:19:24.952Z,10.40
2022-12-05T18:21:54.620Z,10.80
2022-12-05T18:24:24.203Z,10.13
2022-12-05T18:26:53.909Z,11.00
2022-12-05T18:29:24.226Z,7.38
2022-12-05T18:31:53.970Z,11.32
2022-12-05T18:34:23.696Z,9.38
2022-12-05T18:36:53.579Z,10.77
2022-12-05T18:39:23.159Z,12.95
2022-12-05T18:41:52.882Z,10.13
2022-12-05T18:44:22.698Z,8.23
2022-12-05T18:46:52.286Z,10.30
2022-12-05T18:49:21.917Z,9.57
2022-12-05T18:51:51.744Z,10.63
2022-12-05T18:54:22.830Z,9.20
2022-12-05T18:56:54.458Z,7.97
2022-12-05T18:59:24.788Z,5.20
2022-12-05T19:01:54.609Z,8.82
2022-12-05T19:04:25.249Z,7.13
2022-12-05T19:06:57.337Z,9.27
2022-12-05T19:09:30.874Z,7.07
2022-12-05T19:12:02.554Z,8.15
2022-12-05T19:14:34.740Z,5.57
2022-12-05T19:17:04.643Z,9.43
2022-12-05T19:19:34.878Z,9.10
2022-12-05T19:22:04.869Z,11.90
2022-12-05T19:24:34.794Z,8.40
2022-12-05T19:27:04.862Z,11.98
2022-12-05T19:29:34.751Z,15.35
2022-12-05T19:32:04.765Z,12.50
2022-12-05T19:34:36.633Z,8.65
2022-12-05T19:37:06.714Z,12.00
2022-12-05T19:39:39.859Z,11.43
2022-12-05T19:42:09.928Z,12.05
2022-12-05T19:44:39.866Z,9.63
2022-12-05T19:47:09.853Z,6.28
2022-12-05T19:49:39.777Z,17.77
2022-12-05T19:52:09.672Z,11.35
2022-12-05T19:54:39.617Z,9.50
2022-12-05T19:57:09.616Z,8.30
2022-12-05T19:59:39.692Z,6.43
2022-12-05T20:02:09.973Z,5.55
2022-12-05T20:04:39.856Z,6.47
2022-12-05T20:07:09.436Z,13.65
2022-12-05T20:09:40.703Z,13.43
2022-12-05T20:12:10.431Z,11.27
2022-12-05T20:14:40.151Z,15.68
2022-12-05T20:17:09.942Z,21.20
2022-12-05T20:19:39.659Z,8.07
2022-12-05T20:22:09.286Z,8.45
2022-12-05T20:24:39.269Z,7.22
2022-12-05T20:27:08.999Z,5.53
2022-12-05T20:29:40.706Z,10.15
2022-12-05T20:32:10.795Z,7.30
2022-12-05T20:34:40.418Z,7.50
2022-12-05T20:37:10.129Z,8.75
2022-12-05T20:39:40.165Z,5.70
2022-12-05T20:42:09.803Z,5.45
2022-12-05T20:44:39.573Z,9.38
2022-12-05T20:47:09.152Z,7.32
2022-12-05T20:49:38.755Z,8.88
2022-12-05T20:52:08.509Z,7.32
2022-12-05T20:54:38.057Z,7.78
2022-12-05T20:57:07.580Z,8.63
2022-12-05T20:59:37.254Z,4.45
2022-12-05T21:02:07.010Z,6.68
2022-12-05T21:04:40.850Z,11.30
2022-12-05T21:07:10.819Z,9.18
2022-12-05T21:09:40.478Z,5.55
2022-12-05T21:12:10.157Z,4.45
2022-12-05T21:14:39.681Z,5.45
2022-12-05T21:17:09.611Z,6.53
2022-12-05T21:19:39.341Z,7.57
2022-12-05T21:22:08.972Z,7.80
2022-12-05T21:24:38.608Z,8.52
2022-12-05T21:27:08.332Z,5.47
2022-12-05T21:29:37.924Z,7.95
2022-12-05T21:32:07.657Z,6.60
2022-12-05T21:34:37.448Z,6.22
2022-12-05T21:37:07.090Z,6.57
2022-12-05T21:39:36.691Z,7.68
2022-12-05T21:42:06.461Z,6.38
2022-12-05T21:44:36.111Z,4.50
2022-12-05T21:47:05.666Z,7.75
2022-12-05T21:49:35.276Z,8.93
2022-12-05T21:52:04.882Z,9.13
2022-12-05T21:54:34.491Z,6.10
2022-12-05T21:57:04.141Z,7.32
2022-12-05T21:59:36.762Z,6.25
2022-12-05T22:02:06.697Z,8.32
2022-12-05T22:04:36.294Z,5.28
2022-12-05T22:07:06.749Z,10.15
2022-12-05T22:09:36.606Z,8.18
2022-12-05T22:12:06.501Z,6.60
2022-12-05T22:14:36.076Z,5.28
2022-12-05T22:17:05.674Z,8.77
2022-12-05T22:19:35.217Z,7.03
2022-12-05T22:22:04.705Z,7.63
2022-12-05T22:24:34.665Z,7.55
2022-12-05T22:27:04.237Z,9.23
2022-12-05T22:29:34.029Z,8.05
2022-12-05T22:32:03.787Z,7.18
2022-12-05T22:34:33.468Z,8.90
2022-12-05T22:37:03.131Z,10.48
2022-12-05T22:39:32.780Z,7.93
2022-12-05T22:42:02.459Z,8.70
2022-12-05T22:44:32.051Z,8.90
2022-12-05T22:47:01.736Z,9.85
2022-12-05T22:49:31.312Z,8.20
2022-12-05T22:52:00.948Z,6.50
2022-12-05T22:54:30.612Z,10.50
2022-12-05T22:57:00.239Z,15.82
2022-12-05T22:59:29.876Z,8.95
2022-12-05T23:01:59.594Z,9.45
2022-12-05T23:04:29.236Z,16.42
2022-12-05T23:06:58.853Z,11.20
2022-12-05T23:09:29.243Z,11.02
2022-12-05T23:11:59.055Z,7.82
2022-12-05T23:14:28.607Z,13.38
2022-12-05T23:16:58.250Z,11.77
2022-12-05T23:19:27.853Z,10.90
2022-12-05T23:21:57.457Z,13.90
2022-12-05T23:24:27.128Z,8.05
2022-12-05T23:26:56.706Z,8.45
2022-12-05T23:29:26.317Z,13.35
2022-12-05T23:31:56.046Z,13.27
2022-12-05T23:34:25.654Z,11.02
2022-12-05T23:36:55.252Z,10.32
2022-12-05T23:39:24.872Z,13.25
2022-12-05T23:41:54.463Z,11.35
2022-12-05T23:44:24.794Z,9.10
2022-12-05T23:46:54.527Z,10.07
2022-12-05T23:49:24.200Z,8.90
2022-12-05T23:51:53.898Z,8.95
2022-12-05T23:54:23.698Z,11.80
2022-12-05T23:56:53.256Z,9.73
2022-12-05T23:59:22.874Z,8.85
